Time;durP1;ratioP1;P1;durP2;ratioP2;P2;SDS_P1;SDS_P2;PMS_P1;PMS_P2;Temp;Humidity;BMP_temperature;BMP_pressure;BME280_temperature;BME280_humidity;BME280_pressure;Samples;Min_cycle;Max_cycle;Signal;HPM_P1;HPM_P2
2023/09/06 00:01:45;;;;;;;16.20;9.20;;;;;;;12.67;80.73;99577.36;225901;1265;24778;-72
2023/09/06 00:06:48;;;;;;;12.00;9.60;;;;;;;12.62;80.76;99574.30;226056;1272;22557;-72
2023/09/06 00:11:50;;;;;;;12.50;10.10;;;;;;;12.56;80.85;99573.33;226045;1268;22537;-72
2023/09/06 00:16:51;;;;;;;12.90;9.50;;;;;;;12.50;80.76;99575.67;226038;1272;25353;-72
2023/09/06 00:21:53;;;;;;;11.90;10.30;;;;;;;12.43;80.97;99578.17;226131;1276;22543;-72
2023/09/06 00:26:58;;;;;;;13.60;10.60;;;;;;;12.36;81.12;99580.14;226082;1272;22554;-72
2023/09/06 00:32:00;;;;;;;12.70;10.10;;;;;;;12.30;81.23;99584.61;226039;1280;24202;-72
2023/09/06 00:37:02;;;;;;;14.70;11.00;;;;;;;12.25;81.45;99591.87;226151;1276;22511;-72
2023/09/06 00:42:05;;;;;;;12.30;10.60;;;;;;;12.20;81.58;99591.17;226126;1274;22557;-72
2023/09/06 00:47:06;;;;;;;14.20;10.70;;;;;;;12.15;81.54;99592.13;225958;1278;24256;-73
2023/09/06 00:52:10;;;;;;;12.40;11.10;;;;;;;12.11;81.73;99591.77;226053;1272;25415;-72
2023/09/06 00:57:12;;;;;;;13.10;10.40;;;;;;;12.04;81.77;99590.04;226025;1277;23380;-73
2023/09/06 01:02:14;;;;;;;16.20;11.60;;;;;;;11.98;81.87;99582.63;226098;1276;22646;-72
2023/09/06 01:07:18;;;;;;;15.20;12.20;;;;;;;11.92;82.04;99581.20;226040;1276;22553;-72
2023/09/06 01:12:20;;;;;;;12.30;11.00;;;;;;;11.87;82.27;99583.72;226128;1272;23024;-73
2023/09/06 01:17:26;;;;;;;15.30;11.70;;;;;;;11.82;82.38;99584.23;225950;1278;22547;-73
2023/09/06 01:22:44;;;;;;;12.40;11.10;;;;;;;11.76;82.40;99578.02;226159;1280;22567;-72
2023/09/06 01:27:47;;;;;;;13.80;11.50;;;;;;;11.71;82.63;99572.76;226077;1278;22598;-73
2023/09/06 01:32:48;;;;;;;13.90;11.80;;;;;;;11.65;82.57;99573.55;226119;1275;22586;-73
2023/09/06 01:37:50;;;;;;;13.20;10.90;;;;;;;11.60;82.81;99570.92;225812;1278;223446;-73
2023/09/06 01:42:53;;;;;;;13.90;12.00;;;;;;;11.54;82.87;99567.25;226106;1276;22651;-73
2023/09/06 01:47:55;;;;;;;14.30;11.70;;;;;;;11.49;82.91;99573.67;226159;1280;22551;-72
2023/09/06 01:52:57;;;;;;;13.00;11.70;;;;;;;11.43;83.13;99571.36;226149;1280;22595;-72
2023/09/06 01:57:59;;;;;;;13.30;11.70;;;;;;;11.38;83.18;99567.13;226218;1277;22534;-73
2023/09/06 02:03:01;;;;;;;14.30;12.80;;;;;;;11.33;83.37;99563.31;226071;1280;22496;-73
2023/09/06 02:08:04;;;;;;;16.90;13.40;;;;;;;11.28;83.36;99560.89;225981;1280;25307;-72
2023/09/06 02:13:06;;;;;;;15.10;12.80;;;;;;;11.24;83.67;99566.21;225979;1275;22567;-73
2023/09/06 02:18:09;;;;;;;16.70;12.60;;;;;;;11.19;83.62;99560.11;226115;1275;24406;-72
2023/09/06 02:23:13;;;;;;;16.40;12.90;;;;;;;11.14;83.83;99554.38;226128;1261;22546;-73
2023/09/06 02:28:17;;;;;;;16.50;13.00;;;;;;;11.09;83.83;99554.73;225948;1275;22533;-73
2023/09/06 02:33:19;;;;;;;16.80;12.60;;;;;;;11.04;83.92;99557.63;226163;1275;22565;-72
2023/09/06 02:38:22;;;;;;;15.10;13.10;;;;;;;10.98;83.89;99561.09;226125;1276;22555;-72
2023/09/06 02:43:24;;;;;;;15.10;12.90;;;;;;;10.93;84.23;99563.60;226052;1277;22540;-72
2023/09/06 02:48:27;;;;;;;17.00;12.70;;;;;;;10.86;84.34;99568.00;226135;1277;22545;-73
2023/09/06 02:53:31;;;;;;;15.40;13.30;;;;;;;10.81;84.36;99575.01;226175;1276;22555;-72
2023/09/06 02:58:37;;;;;;;14.80;13.20;;;;;;;10.76;84.48;99579.54;226132;1277;22547;-73
2023/09/06 03:03:41;;;;;;;15.30;13.40;;;;;;;10.73;84.73;99576.94;226137;1272;22583;-71
2023/09/06 03:08:45;;;;;;;17.30;13.20;;;;;;;10.71;84.92;99580.17;226166;1272;22543;-71
2023/09/06 03:13:47;;;;;;;17.70;14.20;;;;;;;10.68;84.94;99574.35;226113;1280;22540;-71
2023/09/06 03:18:51;;;;;;;17.00;14.70;;;;;;;10.65;85.17;99580.34;226111;1280;22616;-71
2023/09/06 03:23:54;;;;;;;18.70;14.90;;;;;;;10.63;85.14;99580.70;225940;1274;22605;-72
2023/09/06 03:28:56;;;;;;;18.90;14.90;;;;;;;10.62;85.56;99581.52;225988;1280;22571;-72
2023/09/06 03:33:59;;;;;;;17.30;14.50;;;;;;;10.62;85.58;99579.20;225929;1278;22664;-72
2023/09/06 03:39:06;;;;;;;16.70;13.50;;;;;;;10.60;85.65;99578.19;226147;1277;22533;-72
2023/09/06 03:44:08;;;;;;;15.50;13.20;;;;;;;10.57;85.74;99576.73;225972;1275;23133;-72
2023/09/06 03:49:10;;;;;;;16.60;14.00;;;;;;;10.53;85.57;99577.95;225971;1278;22705;-72
2023/09/06 03:54:13;;;;;;;17.50;13.70;;;;;;;10.49;85.62;99582.41;226180;1277;22549;-72
2023/09/06 03:59:15;;;;;;;16.40;13.60;;;;;;;10.45;85.61;99586.70;226134;1280;22560;-73
2023/09/06 04:04:17;;;;;;;15.40;13.10;;;;;;;10.42;85.80;99585.81;225919;1278;22595;-72
2023/09/06 04:09:19;;;;;;;16.20;13.10;;;;;;;10.39;85.87;99583.12;226054;1276;22536;-71
2023/09/06 04:14:24;;;;;;;13.70;12.30;;;;;;;10.37;85.77;99578.31;225956;1272;22605;-71
2023/09/06 04:19:27;;;;;;;15.10;12.90;;;;;;;10.36;86.09;99567.80;226202;1277;25378;-72
2023/09/06 04:24:29;;;;;;;15.60;12.30;;;;;;;10.40;86.27;99568.81;226181;1280;22543;-72
2023/09/06 04:29:31;;;;;;;16.30;12.70;;;;;;;10.43;86.11;99564.94;226226;1268;22537;-71
2023/09/06 04:34:33;;;;;;;13.50;12.10;;;;;;;10.45;86.46;99567.55;226071;1280;25507;-72
2023/09/06 04:39:35;;;;;;;16.60;13.00;;;;;;;10.48;86.37;99575.84;225962;1278;22547;-71
2023/09/06 04:44:38;;;;;;;14.20;12.10;;;;;;;10.51;86.36;99581.42;226210;1278;22598;-72
2023/09/06 04:49:45;;;;;;;15.30;12.10;;;;;;;10.56;86.61;99591.67;226140;1277;22555;-72
2023/09/06 04:54:47;;;;;;;17.70;13.50;;;;;;;10.64;86.67;99600.15;226134;1277;22539;-72
2023/09/06 04:59:49;;;;;;;19.20;14.10;;;;;;;10.75;87.00;99604.39;225951;1275;22568;-72
2023/09/06 05:04:52;;;;;;;18.70;13.70;;;;;;;10.91;87.23;99609.96;226169;1278;24741;-73
2023/09/06 05:09:57;;;;;;;17.20;14.00;;;;;;;11.08;87.41;99611.86;225938;1278;22630;-73
2023/09/06 05:15:00;;;;;;;15.50;12.90;;;;;;;11.21;87.15;99605.96;226065;1278;22541;-73
2023/09/06 05:20:27;;;;;;;16.40;13.60;;;;;;;11.35;87.28;99619.20;226180;1273;22570;-74
2023/09/06 05:25:32;;;;;;;16.20;13.30;;;;;;;11.47;87.21;99621.08;226159;1280;25233;-73
2023/09/06 05:30:43;;;;;;;15.00;13.00;;;;;;;11.58;87.23;99616.57;225975;1280;22540;-73
2023/09/06 05:35:46;;;;;;;15.70;13.60;;;;;;;11.69;87.21;99618.59;226161;1277;22593;-73
2023/09/06 05:40:50;;;;;;;17.20;14.20;;;;;;;11.83;87.32;99628.73;226194;1277;22586;-73
2023/09/06 05:45:57;;;;;;;17.00;14.80;;;;;;;11.98;87.48;99625.36;226206;1276;22546;-73
2023/09/06 05:50:59;;;;;;;17.60;15.60;;;;;;;12.17;87.59;99630.55;225730;1277;22558;-71
2023/09/06 05:56:02;;;;;;;20.40;14.90;;;;;;;12.38;87.48;99628.70;225656;1262;22541;-74
2023/09/06 06:01:06;;;;;;;22.40;15.40;;;;;;;12.60;87.62;99631.54;225727;1275;22543;-73
2023/09/06 06:06:10;;;;;;;22.00;16.70;;;;;;;12.84;87.54;99626.84;225525;1262;22538;-71
2023/09/06 06:11:13;;;;;;;18.90;16.10;;;;;;;13.07;87.65;99634.65;225626;1259;22540;-72
2023/09/06 06:16:15;;;;;;;20.60;16.30;;;;;;;13.31;87.63;99635.45;225561;1257;22578;-72
2023/09/06 06:21:17;;;;;;;19.00;15.90;;;;;;;13.56;87.71;99628.86;225506;1266;22540;-75
2023/09/06 06:26:20;;;;;;;21.30;16.10;;;;;;;13.81;87.23;99626.49;225571;1273;22539;-74
2023/09/06 06:31:21;;;;;;;18.30;14.70;;;;;;;14.04;86.85;99629.14;225507;1268;22643;-74
2023/09/06 06:36:24;;;;;;;16.70;14.60;;;;;;;14.27;86.69;99629.36;225426;1259;22543;-73
2023/09/06 06:41:26;;;;;;;20.30;15.10;;;;;;;14.50;86.44;99636.17;225317;1273;22544;-73
2023/09/06 06:46:29;;;;;;;19.10;15.00;;;;;;;14.73;86.20;99637.39;225522;1262;25237;-74
2023/09/06 06:51:36;;;;;;;19.90;13.90;;;;;;;14.96;86.12;99639.26;225701;1264;22640;-73
2023/09/06 06:56:40;;;;;;;19.20;13.80;;;;;;;15.18;85.48;99640.09;225747;1268;22587;-74
2023/09/06 07:01:42;;;;;;;20.90;14.10;;;;;;;15.42;85.42;99638.33;225673;1261;22544;-74
2023/09/06 07:06:44;;;;;;;20.80;14.30;;;;;;;15.66;85.22;99637.84;225707;1274;22561;-73
2023/09/06 07:11:47;;;;;;;19.20;15.00;;;;;;;15.88;84.58;99630.33;225801;1261;22593;-74
2023/09/06 07:16:49;;;;;;;21.90;14.50;;;;;;;16.09;84.06;99628.23;225953;1266;25312;-73
2023/09/06 07:21:52;;;;;;;16.00;14.20;;;;;;;16.30;83.60;99631.09;225796;1268;24354;-73
2023/09/06 07:26:54;;;;;;;22.60;14.40;;;;;;;16.51;83.11;99630.13;225734;1268;22543;-74
2023/09/06 07:31:56;;;;;;;17.00;12.70;;;;;;;16.71;82.91;99631.08;225798;1268;22567;-75
2023/09/06 07:36:57;;;;;;;19.90;12.60;;;;;;;16.94;82.56;99635.17;225710;1262;22560;-74
2023/09/06 07:41:59;;;;;;;16.70;11.50;;;;;;;17.19;82.35;99630.42;225440;1265;22541;-75
2023/09/06 07:47:02;;;;;;;21.50;12.20;;;;;;;17.46;82.13;99632.64;225513;1257;22611;-74
2023/09/06 07:52:05;;;;;;;20.80;12.20;;;;;;;17.71;81.49;99630.58;225384;1278;25315;-76
2023/09/06 07:57:07;;;;;;;16.90;12.60;;;;;;;17.96;81.26;99630.51;225364;1272;22523;-75
2023/09/06 08:02:09;;;;;;;21.60;12.40;;;;;;;18.18;80.69;99624.67;225340;1272;22536;-77
2023/09/06 08:07:11;;;;;;;18.80;10.30;;;;;;;18.42;80.56;99621.83;225244;1269;24918;-77
2023/09/06 08:12:13;;;;;;;19.40;10.40;;;;;;;18.66;80.20;99621.48;225523;1258;22643;-76
2023/09/06 08:17:15;;;;;;;17.60;9.60;;;;;;;18.87;79.50;99629.24;225199;1262;23058;-77
2023/09/06 08:22:18;;;;;;;18.90;9.00;;;;;;;19.09;79.24;99626.59;225472;1269;22531;-77
2023/09/06 08:27:27;;;;;;;19.30;10.20;;;;;;;19.34;79.03;99621.81;225416;1275;22561;-76
2023/09/06 08:32:29;;;;;;;17.50;9.20;;;;;;;19.58;78.59;99624.16;225404;1276;22537;-75
2023/09/06 08:37:31;;;;;;;15.60;7.40;;;;;;;19.79;77.87;99622.52;225608;1278;22556;-76
2023/09/06 08:42:34;;;;;;;13.80;8.30;;;;;;;19.96;76.65;99627.16;225641;1278;22625;-76
2023/09/06 08:47:41;;;;;;;14.50;8.50;;;;;;;20.12;76.44;99629.89;225854;1278;22547;-75
2023/09/06 08:52:44;;;;;;;16.10;7.90;;;;;;;20.32;76.11;99629.94;225683;1273;23588;-75
2023/09/06 08:57:47;;;;;;;14.10;7.30;;;;;;;20.55;76.04;99633.35;225487;1272;22541;-77
2023/09/06 09:02:50;;;;;;;14.20;7.30;;;;;;;20.73;74.94;99635.30;225573;1277;22500;-76
2023/09/06 09:08:00;;;;;;;14.90;7.20;;;;;;;20.92;74.50;99632.30;225455;1278;22534;-77
2023/09/06 09:13:02;;;;;;;12.30;7.40;;;;;;;21.13;74.02;99629.06;225546;1278;22537;-75
2023/09/06 09:18:12;;;;;;;14.20;7.50;;;;;;;21.36;73.89;99628.98;225400;1278;25330;-75
2023/09/06 09:23:14;;;;;;;11.60;6.40;;;;;;;21.54;72.82;99638.66;225457;1277;22539;-75
2023/09/06 09:28:17;;;;;;;9.60;5.90;;;;;;;21.67;71.84;99640.16;225734;1278;22538;-75
2023/09/06 09:33:19;;;;;;;11.80;7.40;;;;;;;21.81;71.01;99635.98;225476;1262;25269;-75
2023/09/06 09:38:21;;;;;;;11.50;6.80;;;;;;;21.89;70.73;99628.59;225773;1275;25022;-75
2023/09/06 09:43:26;;;;;;;7.80;5.30;;;;;;;22.05;70.08;99632.37;225660;1260;22540;-75
2023/09/06 09:48:30;;;;;;;9.70;5.60;;;;;;;22.20;68.99;99631.76;225669;1268;22544;-74
2023/09/06 09:53:32;;;;;;;9.80;5.90;;;;;;;22.36;68.94;99634.73;225576;1272;22557;-74
2023/09/06 09:58:37;;;;;;;11.30;6.80;;;;;;;22.49;68.16;99636.95;225302;1278;22544;-74
2023/09/06 10:03:42;;;;;;;9.00;6.00;;;;;;;22.56;67.57;99638.02;225532;1272;22552;-75
2023/09/06 10:08:45;;;;;;;11.60;6.70;;;;;;;22.71;67.88;99639.41;225641;1261;22539;-77
2023/09/06 10:13:49;;;;;;;11.10;6.30;;;;;;;22.92;67.59;99643.73;225586;1263;22544;-75
2023/09/06 10:18:51;;;;;;;10.30;6.60;;;;;;;23.04;66.46;99643.70;225496;1257;24231;-75
2023/09/06 10:23:54;;;;;;;10.60;6.20;;;;;;;23.09;65.17;99639.61;225393;1274;22575;-75
2023/09/06 10:28:57;;;;;;;7.60;5.70;;;;;;;23.14;64.88;99632.89;225527;1273;22568;-74
2023/09/06 10:33:59;;;;;;;6.40;5.40;;;;;;;23.22;63.56;99634.98;225721;1279;22472;-75
2023/09/06 10:39:04;;;;;;;5.90;4.90;;;;;;;23.24;62.83;99633.19;225613;1279;24808;-75
2023/09/06 10:44:12;;;;;;;8.30;5.60;;;;;;;23.34;62.93;99628.56;225789;1278;23049;-74
2023/09/06 10:49:20;;;;;;;12.60;9.30;;;;;;;23.46;62.13;99624.02;225828;1266;22577;-76
2023/09/06 10:54:25;;;;;;;8.60;5.80;;;;;;;23.60;61.38;99621.69;225572;1275;22586;-77
2023/09/06 10:59:28;;;;;;;7.00;5.50;;;;;;;23.77;60.93;99619.83;225412;1274;22556;-77
2023/09/06 11:04:30;;;;;;;6.50;5.80;;;;;;;23.85;59.33;99620.03;225355;1270;22550;-76
2023/09/06 11:09:33;;;;;;;4.90;4.40;;;;;;;23.88;58.49;99619.75;225738;1263;22541;-77
2023/09/06 11:14:35;;;;;;;6.60;6.00;;;;;;;23.91;57.85;99615.81;225475;1278;22597;-75
2023/09/06 11:19:37;;;;;;;5.70;5.00;;;;;;;24.03;57.63;99613.72;225193;1263;22580;-75
2023/09/06 11:24:39;;;;;;;6.30;5.50;;;;;;;24.06;56.08;99610.17;225137;1268;22541;-76
2023/09/06 11:29:42;;;;;;;5.70;5.20;;;;;;;24.09;56.06;99609.09;225529;1258;23104;-76
2023/09/06 11:34:45;;;;;;;5.40;4.80;;;;;;;24.18;55.67;99606.04;225208;1257;22544;-76
2023/09/06 11:39:49;;;;;;;5.50;5.00;;;;;;;24.30;54.46;99599.20;226299;1276;26542;-76
2023/09/06 11:44:53;;;;;;;8.10;4.90;;;;;;;24.42;54.43;99593.89;225330;1274;22601;-76
2023/09/06 11:49:56;;;;;;;6.00;5.40;;;;;;;24.51;53.63;99590.94;225346;1277;22531;-77
2023/09/06 11:55:05;;;;;;;6.40;5.30;;;;;;;24.61;53.42;99588.46;225708;1276;24256;-76
2023/09/06 12:00:35;;;;;;;6.40;5.80;;;;;;;24.66;53.22;99583.20;225413;1277;22564;-77
2023/09/06 12:05:31;;;;;;;6.40;5.40;;;;;;;24.72;53.09;99583.90;225351;1267;22556;-77
2023/09/06 12:10:54;;;;;;;6.40;5.50;;;;;;;24.83;53.73;99579.31;225547;1263;22542;-74
2023/09/06 12:15:57;;;;;;;6.70;5.30;;;;;;;24.92;53.03;99575.33;225643;1280;22572;-76
2023/09/06 12:20:59;;;;;;;7.00;5.70;;;;;;;24.95;52.14;99572.65;225711;1276;22604;-78
2023/09/06 12:26:02;;;;;;;6.90;5.30;;;;;;;24.95;51.58;99571.89;225485;1273;22571;-77
2023/09/06 12:31:05;;;;;;;7.20;5.70;;;;;;;24.94;51.48;99569.98;225483;1273;23077;-78
2023/09/06 12:36:12;;;;;;;5.90;5.10;;;;;;;24.98;51.59;99566.28;225562;1272;22544;-74
2023/09/06 12:41:14;;;;;;;6.40;5.80;;;;;;;25.06;51.83;99564.27;225323;1278;22536;-75
2023/09/06 12:46:18;;;;;;;7.60;5.90;;;;;;;25.14;51.61;99562.25;225416;1262;22546;-75
2023/09/06 12:51:20;;;;;;;7.10;5.90;;;;;;;25.23;51.26;99555.70;225519;1258;22581;-74
2023/09/06 12:56:22;;;;;;;6.90;5.70;;;;;;;25.30;50.44;99555.34;225437;1276;22564;-75
2023/09/06 13:01:24;;;;;;;5.50;5.00;;;;;;;25.33;50.60;99550.48;225200;1273;23210;-75
2023/09/06 13:06:26;;;;;;;6.60;5.10;;;;;;;25.37;50.23;99552.40;225169;1267;22527;-73
2023/09/06 13:11:27;;;;;;;7.10;5.80;;;;;;;25.39;50.21;99542.70;225422;1277;22579;-73
2023/09/06 13:16:29;;;;;;;7.30;5.60;;;;;;;25.47;50.57;99536.50;225377;1266;22547;-73
2023/09/06 13:21:31;;;;;;;8.30;6.00;;;;;;;25.55;50.43;99530.35;225264;1261;22569;-73
2023/09/06 13:26:33;;;;;;;7.30;6.00;;;;;;;25.60;50.67;99525.98;225643;1276;22574;-74
2023/09/06 13:31:35;;;;;;;8.40;6.00;;;;;;;25.70;51.35;99529.33;225441;1257;26988;-74
2023/09/06 13:36:37;;;;;;;7.10;5.80;;;;;;;25.80;51.25;99521.00;225339;1260;175540;-75
2023/09/06 13:41:41;;;;;;;7.80;5.50;;;;;;;25.88;50.92;99522.91;225647;1273;22547;-75
2023/09/06 13:46:43;;;;;;;9.40;6.10;;;;;;;25.94;50.36;99514.04;225538;1273;22746;-76
2023/09/06 13:51:44;;;;;;;8.90;5.80;;;;;;;26.02;50.26;99514.40;225496;1270;22663;-75
2023/09/06 13:56:49;;;;;;;7.80;6.00;;;;;;;26.05;50.21;99512.19;225704;1270;22585;-77
2023/09/06 14:01:52;;;;;;;6.80;6.10;;;;;;;26.08;50.42;99504.28;225420;1273;25293;-75
2023/09/06 14:06:54;;;;;;;7.80;7.00;;;;;;;26.14;49.94;99499.17;225221;1280;22537;-76
2023/09/06 14:11:56;;;;;;;6.80;6.10;;;;;;;26.12;49.14;99494.79;225510;1263;22559;-76
2023/09/06 14:16:58;;;;;;;5.90;5.10;;;;;;;26.07;49.23;99498.21;225157;1279;25275;-76
2023/09/06 14:22:00;;;;;;;8.30;5.90;;;;;;;26.04;49.12;99493.88;225207;1272;22643;-76
2023/09/06 14:27:03;;;;;;;7.60;5.90;;;;;;;26.02;49.33;99491.11;225453;1257;22823;-77
2023/09/06 14:32:06;;;;;;;7.70;6.50;;;;;;;25.99;49.43;99489.58;225484;1273;24203;-75
2023/09/06 14:37:08;;;;;;;6.70;5.80;;;;;;;25.96;49.31;99484.95;225779;1273;24207;-76
2023/09/06 14:42:10;;;;;;;6.60;6.00;;;;;;;26.00;49.50;99484.39;225585;1277;22555;-77
2023/09/06 14:47:12;;;;;;;6.90;6.20;;;;;;;26.02;49.59;99475.67;225473;1272;22566;-76
2023/09/06 14:52:14;;;;;;;7.20;5.90;;;;;;;25.95;49.32;99471.84;225312;1279;22539;-76
2023/09/06 14:57:16;;;;;;;7.20;6.20;;;;;;;25.88;49.38;99471.39;225534;1277;22577;-77
2023/09/06 15:02:18;;;;;;;7.00;6.30;;;;;;;25.82;49.52;99472.64;225655;1278;22557;-77
2023/09/06 15:07:20;;;;;;;9.00;6.10;;;;;;;25.75;49.43;99472.36;225742;1278;23379;-77
2023/09/06 15:12:22;;;;;;;6.90;6.00;;;;;;;25.69;49.66;99466.13;225796;1278;25333;-77
2023/09/06 15:17:24;;;;;;;6.90;6.20;;;;;;;25.68;50.09;99473.12;225734;1280;22555;-77
2023/09/06 15:22:26;;;;;;;8.10;6.80;;;;;;;25.66;50.24;99473.52;225780;1276;22573;-77
2023/09/06 15:27:40;;;;;;;6.90;6.20;;;;;;;25.63;50.24;99470.63;225803;1281;22562;-77
2023/09/06 15:32:42;;;;;;;7.90;6.80;;;;;;;25.59;50.52;99472.05;225767;1277;22764;-77
2023/09/06 15:38:03;;;;;;;7.70;6.30;;;;;;;25.54;50.53;99470.48;225739;1279;22549;-77
2023/09/06 15:43:06;;;;;;;7.20;6.60;;;;;;;25.45;50.59;99469.61;225861;1277;22577;-76
2023/09/06 15:48:07;;;;;;;9.00;6.80;;;;;;;25.36;50.90;99470.13;225791;1281;22645;-77
2023/09/06 15:53:09;;;;;;;7.10;6.40;;;;;;;25.29;50.87;99469.23;225731;1280;22543;-77
2023/09/06 15:58:11;;;;;;;6.80;6.20;;;;;;;25.21;51.08;99466.52;225792;1277;25390;-78
2023/09/06 16:03:13;;;;;;;7.30;6.60;;;;;;;25.10;51.32;99474.83;225733;1276;22548;-78
2023/09/06 16:08:16;;;;;;;7.40;6.60;;;;;;;24.96;51.91;99476.60;225788;1277;23330;-78
2023/09/06 16:13:18;;;;;;;7.70;6.60;;;;;;;24.80;52.26;99480.30;225640;1280;22544;-77
2023/09/06 16:18:20;;;;;;;9.10;7.30;;;;;;;24.63;52.69;99485.58;225696;1275;22616;-78
2023/09/06 16:23:22;;;;;;;7.90;7.10;;;;;;;24.45;53.11;99488.66;225761;1277;23617;-77
2023/09/06 16:28:25;;;;;;;7.20;6.40;;;;;;;24.26;53.72;99485.23;225756;1278;22542;-78
2023/09/06 16:33:27;;;;;;;8.10;7.30;;;;;;;24.07;54.02;99489.02;225828;1276;22564;-76
2023/09/06 16:38:29;;;;;;;9.40;7.00;;;;;;;23.88;54.52;99489.73;225871;1278;22663;-78
2023/09/06 16:43:32;;;;;;;8.50;6.50;;;;;;;23.66;54.92;99489.43;225997;1278;22579;-77
2023/09/06 16:48:34;;;;;;;7.10;6.50;;;;;;;23.44;55.21;99493.50;225980;1276;22663;-77
2023/09/06 16:53:36;;;;;;;8.20;6.20;;;;;;;23.20;55.73;99497.18;225900;1278;22583;-77
2023/09/06 16:58:40;;;;;;;8.20;6.70;;;;;;;22.97;56.06;99500.40;225881;1278;22555;-77
2023/09/06 17:03:42;;;;;;;7.40;6.70;;;;;;;22.74;56.65;99499.98;225935;1278;22533;-78
2023/09/06 17:08:44;;;;;;;7.40;6.60;;;;;;;22.49;57.54;99497.36;225915;1278;22555;-78
2023/09/06 17:13:46;;;;;;;8.10;6.50;;;;;;;22.23;58.28;99499.95;226020;1275;22529;-78
2023/09/06 17:18:48;;;;;;;7.30;6.10;;;;;;;21.96;58.83;99504.02;226034;1276;22573;-78
2023/09/06 17:23:49;;;;;;;8.40;6.50;;;;;;;21.69;59.56;99508.87;226005;1280;22668;-78
2023/09/06 17:29:05;;;;;;;13.10;7.10;;;;;;;21.40;60.08;99505.98;226003;1272;22536;-77
2023/09/06 17:34:10;;;;;;;10.00;7.30;;;;;;;21.12;60.73;99505.70;226050;1280;22702;-77
2023/09/06 17:39:12;;;;;;;8.40;7.00;;;;;;;20.87;61.19;99507.41;226038;1276;24225;-77
2023/09/06 17:44:14;;;;;;;9.30;7.80;;;;;;;20.62;61.75;99514.19;225977;1280;22580;-77
2023/09/06 17:49:16;;;;;;;9.90;7.80;;;;;;;20.39;62.37;99516.51;225919;1278;22559;-78
2023/09/06 17:54:23;;;;;;;10.00;7.60;;;;;;;20.16;62.71;99519.08;226011;1276;22543;-77
2023/09/06 17:59:27;;;;;;;10.00;7.30;;;;;;;19.94;63.18;99516.17;226002;1276;24303;-78
2023/09/06 18:04:29;;;;;;;9.40;7.70;;;;;;;19.74;63.71;99520.27;225949;1278;25274;-77
2023/09/06 18:09:33;;;;;;;10.80;8.80;;;;;;;19.57;64.08;99527.00;225900;1268;22540;-79
2023/09/06 18:14:36;;;;;;;9.20;8.00;;;;;;;19.40;64.56;99530.83;226018;1272;25260;-78
2023/09/06 18:19:38;;;;;;;10.80;9.40;;;;;;;19.25;65.04;99532.52;226069;1273;22551;-77
2023/09/06 18:24:40;;;;;;;15.90;11.10;;;;;;;19.08;65.80;99545.86;225919;1278;22551;-77
2023/09/06 18:29:42;;;;;;;16.40;9.50;;;;;;;18.88;66.08;99547.78;225913;1278;22547;-77
2023/09/06 18:34:46;;;;;;;12.20;9.70;;;;;;;18.75;66.56;99547.92;225911;1278;25934;-78
2023/09/06 18:39:48;;;;;;;11.70;9.50;;;;;;;18.62;67.02;99555.74;225777;1280;22632;-78
2023/09/06 18:44:50;;;;;;;14.90;10.50;;;;;;;18.49;67.58;99562.81;226069;1274;25349;-78
2023/09/06 18:49:52;;;;;;;14.60;9.90;;;;;;;18.37;68.11;99563.45;225965;1278;22547;-80
2023/09/06 18:54:54;;;;;;;12.50;9.90;;;;;;;18.25;68.69;99567.20;225835;1280;22546;-78
2023/09/06 18:59:56;;;;;;;12.70;9.30;;;;;;;18.16;69.14;99568.35;226069;1278;22551;-78
2023/09/06 19:04:58;;;;;;;13.60;9.50;;;;;;;18.08;69.56;99573.27;226087;1276;22553;-78
2023/09/06 19:10:00;;;;;;;9.80;8.80;;;;;;;18.00;69.87;99572.63;225920;1272;22539;-78
2023/09/06 19:15:04;;;;;;;10.40;8.70;;;;;;;17.91;70.34;99570.77;226058;1276;24247;-76
2023/09/06 19:20:09;;;;;;;15.50;9.90;;;;;;;17.80;71.01;99572.39;226066;1276;22536;-78
2023/09/06 19:25:11;;;;;;;15.30;8.90;;;;;;;17.71;71.21;99567.67;225953;1278;25507;-77
2023/09/06 19:30:13;;;;;;;15.90;9.20;;;;;;;17.61;71.41;99571.70;226087;1272;22549;-78
2023/09/06 19:35:17;;;;;;;12.10;9.50;;;;;;;17.49;71.65;99571.14;226094;1276;22608;-78
2023/09/06 19:40:19;;;;;;;11.30;9.60;;;;;;;17.35;72.09;99572.89;225798;1279;24257;-78
2023/09/06 19:45:20;;;;;;;11.80;9.10;;;;;;;17.23;72.41;99572.73;225811;1279;22565;-76
2023/09/06 19:50:22;;;;;;;12.00;9.00;;;;;;;17.13;72.79;99570.50;226059;1278;22547;-77
2023/09/06 19:55:24;;;;;;;9.50;8.20;;;;;;;17.04;73.17;99575.70;225960;1278;22654;-77
2023/09/06 20:00:26;;;;;;;12.80;8.60;;;;;;;16.94;73.25;99579.17;225909;1280;22661;-78
2023/09/06 20:05:29;;;;;;;12.70;8.40;;;;;;;16.82;73.48;99586.89;226066;1276;22543;-78
2023/09/06 20:10:31;;;;;;;13.10;9.30;;;;;;;16.70;73.43;99592.62;225789;1278;22535;-78
2023/09/06 20:15:36;;;;;;;10.60;7.50;;;;;;;16.58;73.79;99589.77;225806;1280;24244;-77
2023/09/06 20:20:39;;;;;;;13.60;7.90;;;;;;;16.49;73.99;99586.20;226037;1276;22557;-78
2023/09/06 20:25:41;;;;;;;9.90;8.00;;;;;;;16.41;73.96;99585.67;225884;1279;22610;-79
2023/09/06 20:30:45;;;;;;;11.30;7.90;;;;;;;16.32;74.02;99589.09;226090;1278;22481;-76
2023/09/06 20:35:47;;;;;;;10.30;7.90;;;;;;;16.22;74.30;99586.23;225922;1280;22554;-77
2023/09/06 20:40:58;;;;;;;11.90;6.90;;;;;;;16.14;74.33;99585.96;225944;1278;22540;-77
2023/09/06 20:46:00;;;;;;;14.10;7.90;;;;;;;16.05;74.31;99590.38;226127;1277;24312;-77
2023/09/06 20:51:05;;;;;;;10.90;6.70;;;;;;;15.97;74.22;99585.48;226112;1276;22724;-77
2023/09/06 20:56:07;;;;;;;8.90;7.50;;;;;;;15.87;74.32;99587.48;225967;1277;22541;-77
2023/09/06 21:01:19;;;;;;;9.10;7.80;;;;;;;15.77;74.33;99588.55;226162;1277;22605;-77
2023/09/06 21:06:21;;;;;;;10.70;8.70;;;;;;;15.68;74.55;99588.34;226139;1276;22493;-77
2023/09/06 21:11:25;;;;;;;9.70;8.70;;;;;;;15.59;74.52;99588.10;226135;1280;22557;-77
2023/09/06 21:16:27;;;;;;;13.30;9.10;;;;;;;15.52;74.72;99586.54;225950;1278;22544;-77
2023/09/06 21:21:29;;;;;;;9.90;8.40;;;;;;;15.46;75.05;99582.36;226116;1280;22550;-77
2023/09/06 21:26:31;;;;;;;12.50;8.50;;;;;;;15.39;75.01;99584.45;226094;1277;22612;-77
2023/09/06 21:31:39;;;;;;;10.60;8.40;;;;;;;15.33;75.34;99585.43;226130;1260;22586;-78
2023/09/06 21:37:02;;;;;;;10.50;8.10;;;;;;;15.28;75.35;99591.65;226008;1280;22927;-77
2023/09/06 21:42:04;;;;;;;13.60;9.00;;;;;;;15.24;75.63;99598.31;226000;1275;25379;-77
2023/09/06 21:47:06;;;;;;;10.20;8.10;;;;;;;15.23;75.96;99604.08;226171;1275;22728;-77
2023/09/06 21:52:08;;;;;;;11.00;8.50;;;;;;;15.20;76.01;99607.25;225956;1270;22534;-76
2023/09/06 21:57:10;;;;;;;10.20;8.00;;;;;;;15.17;76.21;99610.92;225983;1278;22599;-78
2023/09/06 22:02:12;;;;;;;13.00;8.80;;;;;;;15.14;76.39;99609.27;225972;1278;22559;-77
2023/09/06 22:07:33;;;;;;;11.10;8.50;;;;;;;15.10;76.39;99610.61;226164;1280;25364;-77
2023/09/06 22:12:53;;;;;;;14.00;9.80;;;;;;;15.02;76.61;99610.02;226173;1278;22536;-77
2023/09/06 22:17:55;;;;;;;11.20;8.90;;;;;;;14.96;76.92;99613.96;226154;1278;22657;-77
2023/09/06 22:22:57;;;;;;;11.10;8.70;;;;;;;14.89;76.96;99621.33;225989;1279;22527;-77
2023/09/06 22:28:04;;;;;;;15.10;9.50;;;;;;;14.82;76.96;99626.85;226030;1273;25981;-77
2023/09/06 22:33:07;;;;;;;10.40;8.20;;;;;;;14.77;77.36;99629.48;226111;1276;22523;-77
2023/09/06 22:38:09;;;;;;;10.90;8.40;;;;;;;14.72;77.58;99634.34;226156;1277;22545;-76
2023/09/06 22:43:11;;;;;;;8.90;7.60;;;;;;;14.68;77.79;99637.43;225960;1279;25409;-77
2023/09/06 22:48:13;;;;;;;11.20;8.60;;;;;;;14.66;77.84;99634.23;226172;1276;22536;-77
2023/09/06 22:53:15;;;;;;;11.10;8.50;;;;;;;14.61;78.10;99631.64;225964;1278;22528;-78
2023/09/06 22:58:18;;;;;;;12.10;9.00;;;;;;;14.56;78.10;99630.73;225950;1280;22540;-77
2023/09/06 23:03:20;;;;;;;12.50;9.00;;;;;;;14.51;78.25;99634.39;226186;1277;24323;-77
2023/09/06 23:08:23;;;;;;;12.00;9.00;;;;;;;14.44;78.47;99635.14;226183;1278;22580;-77
2023/09/06 23:13:25;;;;;;;11.60;9.60;;;;;;;14.38;78.46;99638.96;226186;1277;22618;-77